LFSO 221130Z AUTO 23019KT CAVOK 10/01 Q1028

ElémentsDécodage
LFSO Station météo située sur l'aérodrome de NANCY Ochey
221130Z émis le 22 du mois à 11h30 UTC
AUTO Bulletin édité par un automate
23019KT vent du 230°, 19 noeuds
CAVOK Ceiling And Visibility OK
- Visibilité de 10 Km ou plus
- Pas de nuage au-dessous de 1500m ou au-dessous de l'altitude minimale du secteur la plus élevée (si>1500m) et absence de CB
- pas de temps présent significatif
10/01 température 10°C, point de rosée 01°C
 soit une humidité relative de 54%
Q1028 la pression au niveau de la mer (QNH) est de 1028 hPa